createdAt,value
2023-02-02T00:01:25.610Z,4.00
2023-02-02T00:03:52.805Z,4.22
2023-02-02T00:06:24.950Z,3.60
2023-02-02T00:08:51.977Z,2.75
2023-02-02T00:11:19.853Z,2.55
2023-02-02T00:13:46.552Z,3.28
2023-02-02T00:16:28.582Z,3.15
2023-02-02T00:18:57.074Z,3.30
2023-02-02T00:21:24.268Z,3.03
2023-02-02T00:23:51.429Z,3.35
2023-02-02T00:26:18.751Z,3.20
2023-02-02T00:28:45.576Z,3.30
2023-02-02T00:31:12.318Z,3.17
2023-02-02T00:33:39.187Z,3.92
2023-02-02T00:36:06.241Z,3.30
2023-02-02T00:38:34.599Z,3.38
2023-02-02T00:41:01.303Z,3.40
2023-02-02T00:43:28.008Z,3.50
2023-02-02T00:45:54.761Z,3.60
2023-02-02T00:48:21.759Z,3.35
2023-02-02T00:50:48.762Z,3.40
2023-02-02T00:53:15.717Z,3.58
2023-02-02T00:55:42.405Z,3.15
2023-02-02T00:58:09.144Z,3.38
2023-02-02T01:00:37.488Z,3.10
2023-02-02T01:03:06.085Z,3.67
2023-02-02T01:05:34.365Z,3.33
2023-02-02T01:08:01.617Z,3.70
2023-02-02T01:10:28.571Z,3.35
2023-02-02T01:12:55.266Z,3.50
2023-02-02T01:15:22.319Z,3.22
2023-02-02T01:17:49.150Z,3.42
2023-02-02T01:20:19.326Z,3.72
2023-02-02T01:22:46.671Z,3.50
2023-02-02T01:25:14.030Z,3.08
2023-02-02T01:27:40.889Z,3.20
2023-02-02T01:30:08.465Z,3.83
2023-02-02T01:32:35.177Z,3.42
2023-02-02T01:35:01.856Z,3.50
2023-02-02T01:37:28.566Z,3.10
2023-02-02T01:39:55.286Z,4.45
2023-02-02T01:42:23.468Z,3.25
2023-02-02T01:45:05.226Z,3.05
2023-02-02T01:47:47.505Z,3.40
2023-02-02T01:50:16.436Z,3.17
2023-02-02T01:52:47.009Z,3.53
2023-02-02T01:55:17.448Z,3.22
2023-02-02T01:57:50.729Z,3.40
2023-02-02T02:00:24.507Z,2.90
2023-02-02T02:02:54.005Z,3.13
2023-02-02T02:05:34.203Z,3.38
2023-02-02T02:08:16.623Z,3.67
2023-02-02T02:10:43.558Z,3.42
2023-02-02T02:13:10.987Z,3.40
2023-02-02T02:16:04.431Z,3.28
2023-02-02T02:19:03.870Z,3.30
2023-02-02T02:22:40.637Z,3.08
2023-02-02T02:25:59.161Z,2.85
2023-02-02T02:28:53.380Z,3.38
2023-02-02T02:31:20.190Z,2.43
2023-02-02T02:33:58.611Z,3.13
2023-02-02T02:36:42.820Z,3.25
2023-02-02T02:39:32.119Z,3.03
2023-02-02T02:42:04.488Z,3.38
2023-02-02T02:44:32.376Z,2.92
2023-02-02T02:46:59.064Z,3.25
2023-02-02T02:49:25.738Z,3.08
2023-02-02T02:51:54.385Z,3.00
2023-02-02T02:54:41.442Z,3.55
2023-02-02T02:57:29.668Z,3.00
2023-02-02T03:00:24.118Z,3.40
2023-02-02T03:03:08.121Z,2.20
2023-02-02T03:05:50.847Z,3.30
2023-02-02T03:08:24.596Z,3.95
2023-02-02T03:10:52.230Z,2.92
2023-02-02T03:13:19.125Z,2.78
2023-02-02T03:15:46.737Z,2.83
2023-02-02T03:18:15.385Z,2.95
2023-02-02T03:20:44.402Z,2.88
2023-02-02T03:23:11.605Z,2.75
2023-02-02T03:25:38.565Z,2.75
2023-02-02T03:28:07.158Z,2.70
2023-02-02T03:30:34.444Z,3.00
2023-02-02T03:33:01.256Z,2.88
2023-02-02T03:35:28.023Z,3.00
2023-02-02T03:37:54.749Z,2.53
2023-02-02T03:40:21.394Z,2.70
2023-02-02T03:42:48.157Z,3.10
2023-02-02T03:45:15.063Z,2.53
2023-02-02T03:47:41.720Z,2.65
2023-02-02T03:50:10.009Z,2.95
2023-02-02T03:52:36.915Z,3.10
2023-02-02T03:55:03.857Z,2.97
2023-02-02T03:57:30.572Z,2.75
2023-02-02T03:59:57.229Z,3.05
2023-02-02T04:02:23.941Z,2.75
2023-02-02T04:04:50.778Z,2.67
2023-02-02T04:07:17.638Z,2.67
2023-02-02T04:09:44.333Z,3.38
2023-02-02T04:12:11.109Z,2.72
2023-02-02T04:14:37.803Z,2.58
2023-02-02T04:17:04.622Z,2.60
2023-02-02T04:19:31.289Z,2.97
2023-02-02T04:21:57.936Z,2.95
2023-02-02T04:24:24.567Z,2.60
2023-02-02T04:26:51.320Z,2.45
2023-02-02T04:29:18.082Z,2.75
2023-02-02T04:31:45.880Z,2.53
2023-02-02T04:34:12.642Z,2.72
2023-02-02T04:36:39.437Z,2.88
2023-02-02T04:39:06.293Z,2.67
2023-02-02T04:41:32.963Z,3.08
2023-02-02T04:43:59.661Z,3.58
2023-02-02T04:46:28.050Z,3.08
2023-02-02T04:48:54.894Z,3.08
2023-02-02T04:51:21.621Z,3.15
2023-02-02T04:53:48.317Z,3.03
2023-02-02T04:56:18.029Z,2.67
2023-02-02T04:58:45.607Z,2.97
2023-02-02T05:01:17.590Z,3.20
2023-02-02T05:03:45.024Z,2.80
2023-02-02T05:06:13.502Z,3.05
2023-02-02T05:08:43.239Z,3.42
2023-02-02T05:11:18.712Z,4.38
2023-02-02T05:13:50.315Z,2.88
2023-02-02T05:16:17.323Z,3.20
2023-02-02T05:18:52.546Z,3.53
2023-02-02T05:21:20.264Z,2.92
2023-02-02T05:23:47.060Z,3.00
2023-02-02T05:26:20.921Z,2.80
2023-02-02T05:28:48.645Z,3.10
2023-02-02T05:31:15.480Z,3.92
2023-02-02T05:33:42.679Z,2.80
2023-02-02T05:36:10.853Z,3.30
2023-02-02T05:38:37.692Z,3.70
2023-02-02T05:41:05.180Z,3.13
2023-02-02T05:43:33.257Z,3.35
2023-02-02T05:46:00.519Z,3.22
2023-02-02T05:48:27.450Z,3.40
2023-02-02T05:51:06.368Z,3.53
2023-02-02T05:53:33.164Z,3.42
2023-02-02T05:56:00.148Z,3.60
2023-02-02T05:58:27.933Z,3.50
2023-02-02T06:00:56.576Z,3.60
2023-02-02T06:03:23.797Z,3.53
2023-02-02T06:05:50.760Z,3.28
2023-02-02T06:08:17.411Z,3.53
2023-02-02T06:10:44.229Z,2.90
2023-02-02T06:13:11.009Z,3.30
2023-02-02T06:15:38.100Z,3.53
2023-02-02T06:18:06.851Z,3.20
2023-02-02T06:20:33.832Z,3.60
2023-02-02T06:23:00.615Z,3.47
2023-02-02T06:25:27.698Z,3.28
2023-02-02T06:27:58.913Z,3.28
2023-02-02T06:30:26.336Z,3.95
2023-02-02T06:32:53.304Z,3.08
2023-02-02T06:35:20.299Z,3.53
2023-02-02T06:37:47.048Z,3.28
2023-02-02T06:40:13.801Z,2.97
2023-02-02T06:42:41.001Z,3.55
2023-02-02T06:45:08.248Z,3.08
2023-02-02T06:47:35.009Z,3.70
2023-02-02T06:50:01.718Z,3.28
2023-02-02T06:52:28.824Z,3.33
2023-02-02T06:54:55.486Z,3.70
2023-02-02T06:57:22.184Z,3.30
2023-02-02T06:59:48.939Z,3.63
2023-02-02T07:02:15.761Z,4.05
2023-02-02T07:04:42.445Z,4.38
2023-02-02T07:07:09.183Z,3.40
2023-02-02T07:09:36.257Z,3.60
2023-02-02T07:12:03.001Z,3.20
2023-02-02T07:14:29.679Z,3.42
2023-02-02T07:16:56.456Z,3.70
2023-02-02T07:19:23.117Z,3.65
2023-02-02T07:21:49.863Z,3.40
2023-02-02T07:24:16.668Z,3.90
2023-02-02T07:26:43.583Z,3.33
2023-02-02T07:29:14.271Z,3.72
2023-02-02T07:31:41.511Z,3.53
2023-02-02T07:34:08.652Z,3.38
2023-02-02T07:36:35.970Z,3.92
2023-02-02T07:39:04.870Z,3.00
2023-02-02T07:41:34.264Z,3.45
2023-02-02T07:44:01.868Z,3.40
2023-02-02T07:46:28.842Z,3.20
2023-02-02T07:48:56.437Z,4.10
2023-02-02T07:51:24.466Z,3.70
2023-02-02T07:53:53.616Z,3.72
2023-02-02T07:56:23.215Z,3.70
2023-02-02T07:58:53.208Z,3.60
2023-02-02T08:01:22.853Z,3.20
2023-02-02T08:03:50.634Z,4.60
2023-02-02T08:06:29.801Z,4.53
2023-02-02T08:08:56.627Z,4.15
2023-02-02T08:11:25.232Z,4.18
2023-02-02T08:13:54.400Z,4.60
2023-02-02T08:16:22.068Z,4.63
2023-02-02T08:18:49.469Z,4.90
2023-02-02T08:21:16.812Z,3.70
2023-02-02T08:23:45.610Z,4.80
2023-02-02T08:26:15.040Z,4.40
2023-02-02T08:28:43.339Z,3.80
2023-02-02T08:31:20.371Z,3.60
2023-02-02T08:33:47.183Z,4.07
2023-02-02T08:36:15.738Z,4.47
2023-02-02T08:38:42.812Z,4.45
2023-02-02T08:41:12.418Z,4.00
2023-02-02T08:43:40.242Z,2.97
2023-02-02T08:46:09.679Z,4.15
2023-02-02T08:48:37.001Z,4.03
2023-02-02T08:51:05.109Z,4.13
2023-02-02T08:53:32.410Z,3.80
2023-02-02T08:56:04.477Z,3.80
2023-02-02T08:58:31.897Z,3.05
2023-02-02T09:01:16.181Z,3.50
2023-02-02T09:03:44.486Z,3.50
2023-02-02T09:06:14.002Z,5.00
2023-02-02T09:08:41.388Z,5.75
2023-02-02T09:11:11.575Z,4.35
2023-02-02T09:13:39.543Z,3.80
2023-02-02T09:16:08.717Z,3.83
2023-02-02T09:18:35.596Z,3.72
2023-02-02T09:21:05.826Z,3.70
2023-02-02T09:23:34.464Z,4.00
2023-02-02T09:26:17.833Z,3.85
2023-02-02T09:28:47.591Z,4.00
2023-02-02T09:31:15.353Z,6.22
2023-02-02T09:33:42.645Z,4.00
2023-02-02T09:36:12.119Z,4.15
2023-02-02T09:38:39.619Z,3.67
2023-02-02T09:41:27.478Z,3.78
2023-02-02T09:44:07.262Z,3.80
2023-02-02T09:46:45.513Z,3.50
2023-02-02T09:49:16.779Z,3.60
2023-02-02T09:51:56.799Z,4.32
2023-02-02T09:54:29.892Z,3.33
2023-02-02T09:57:00.448Z,3.55
2023-02-02T09:59:35.572Z,3.03
2023-02-02T10:02:40.860Z,3.55
2023-02-02T10:05:32.311Z,3.05
2023-02-02T10:08:01.902Z,3.33
2023-02-02T10:10:41.783Z,3.25
2023-02-02T10:13:23.974Z,3.42
2023-02-02T10:16:03.633Z,3.08
2023-02-02T10:18:53.720Z,3.03
2023-02-02T10:22:04.906Z,3.60
2023-02-02T10:24:32.569Z,3.13
2023-02-02T10:27:05.684Z,3.40
2023-02-02T10:29:48.955Z,3.17
2023-02-02T10:32:23.867Z,4.93
2023-02-02T10:35:07.033Z,3.15
2023-02-02T10:37:48.081Z,3.17
2023-02-02T10:40:44.518Z,3.10
2023-02-02T10:43:47.745Z,3.40
2023-02-02T10:46:33.793Z,2.75
2023-02-02T10:49:33.650Z,2.80
2023-02-02T10:52:21.088Z,2.55
2023-02-02T10:55:11.552Z,2.90
2023-02-02T10:57:51.518Z,2.65
2023-02-02T11:00:25.529Z,3.30
2023-02-02T11:02:53.299Z,2.55
2023-02-02T11:05:44.630Z,3.58
2023-02-02T11:08:14.640Z,3.42
2023-02-02T11:10:43.116Z,2.95
2023-02-02T11:13:36.988Z,3.78
2023-02-02T11:16:15.943Z,3.70
2023-02-02T11:18:44.299Z,3.13
2023-02-02T11:21:22.288Z,3.03
2023-02-02T11:23:55.222Z,2.92
2023-02-02T11:26:24.429Z,3.53
2023-02-02T11:28:53.813Z,3.28
2023-02-02T11:31:37.403Z,2.85
2023-02-02T11:34:20.699Z,2.53
2023-02-02T11:37:22.784Z,3.10
2023-02-02T11:39:49.539Z,3.28
2023-02-02T11:42:24.190Z,3.42
2023-02-02T11:44:54.053Z,3.75
2023-02-02T11:47:29.578Z,3.55
2023-02-02T11:49:58.865Z,3.42
2023-02-02T11:52:32.084Z,2.75
2023-02-02T11:55:02.394Z,3.42
2023-02-02T11:57:30.546Z,4.18
2023-02-02T12:00:18.140Z,3.30
2023-02-02T12:02:49.614Z,2.78
2023-02-02T12:05:23.632Z,3.15
2023-02-02T12:07:50.413Z,3.20
2023-02-02T12:10:46.734Z,2.88
2023-02-02T12:13:38.930Z,3.45
2023-02-02T12:16:07.745Z,2.90
2023-02-02T12:19:04.767Z,3.00
2023-02-02T12:21:59.023Z,2.78
2023-02-02T12:24:36.472Z,3.73
2023-02-02T12:27:25.222Z,2.78
2023-02-02T12:30:22.837Z,2.20
2023-02-02T12:33:40.043Z,2.70
2023-02-02T12:36:25.983Z,2.58
2023-02-02T12:39:20.144Z,3.00
2023-02-02T12:42:07.425Z,2.10
2023-02-02T12:44:40.267Z,2.67
2023-02-02T12:47:29.265Z,2.60
2023-02-02T12:49:59.037Z,2.75
2023-02-02T12:52:40.502Z,2.78
2023-02-02T12:55:16.788Z,2.33
2023-02-02T12:57:50.678Z,2.72
2023-02-02T13:01:08.772Z,2.65
2023-02-02T13:04:10.414Z,2.80
2023-02-02T13:06:48.907Z,2.97
2023-02-02T13:09:24.622Z,2.58
2023-02-02T13:11:57.385Z,3.13
2023-02-02T13:14:26.164Z,3.15
2023-02-02T13:17:06.960Z,3.00
2023-02-02T13:19:48.887Z,2.30
2023-02-02T13:22:40.412Z,2.45
2023-02-02T13:25:16.837Z,2.42
2023-02-02T13:27:44.679Z,2.40
2023-02-02T13:30:31.051Z,2.78
2023-02-02T13:33:06.135Z,2.55
2023-02-02T13:36:03.309Z,2.40
2023-02-02T13:38:31.277Z,2.80
2023-02-02T13:41:03.861Z,2.40
2023-02-02T13:43:48.597Z,2.95
2023-02-02T13:46:39.085Z,2.15
2023-02-02T13:49:13.394Z,2.20
2023-02-02T13:54:46.427Z,2.80
2023-02-02T13:57:34.213Z,1.98
2023-02-02T14:00:03.699Z,2.90
2023-02-02T14:02:48.167Z,4.95
2023-02-02T14:05:26.054Z,2.60
2023-02-02T14:08:11.807Z,2.67
2023-02-02T14:10:42.949Z,4.45
2023-02-02T14:13:32.601Z,2.50
2023-02-02T14:16:07.870Z,2.58
2023-02-02T14:18:55.994Z,3.00
2023-02-02T14:21:32.056Z,3.53
2023-02-02T14:24:00.060Z,2.70
2023-02-02T14:27:02.423Z,4.18
2023-02-02T14:29:32.095Z,3.13
2023-02-02T14:32:00.046Z,7.75
2023-02-02T14:34:39.298Z,7.22
2023-02-02T14:37:14.496Z,8.27
2023-02-02T14:39:48.460Z,13.00
2023-02-02T14:43:02.779Z,5.15
2023-02-02T14:45:41.283Z,2.42
2023-02-02T14:48:24.339Z,2.75
2023-02-02T14:50:53.063Z,3.05
2023-02-02T14:53:28.611Z,2.45
2023-02-02T14:56:39.819Z,3.22
2023-02-02T14:59:16.250Z,2.47
2023-02-02T15:01:51.626Z,2.72
2023-02-02T15:04:24.220Z,4.95
2023-02-02T15:06:55.951Z,4.25
2023-02-02T15:09:29.452Z,5.20
2023-02-02T15:12:01.010Z,3.17
2023-02-02T15:14:33.254Z,5.30
2023-02-02T15:17:29.861Z,3.40
2023-02-02T15:20:11.589Z,3.20
2023-02-02T15:22:57.014Z,3.30
2023-02-02T15:25:42.426Z,2.58
2023-02-02T15:28:26.474Z,2.60
2023-02-02T15:31:11.848Z,2.55
2023-02-02T15:33:43.830Z,2.83
2023-02-02T15:36:16.525Z,2.58
2023-02-02T15:38:46.679Z,3.40
2023-02-02T15:41:26.237Z,3.30
2023-02-02T15:43:56.057Z,3.53
2023-02-02T15:46:31.575Z,3.28
2023-02-02T15:49:33.694Z,4.07
2023-02-02T15:52:10.879Z,3.40
2023-02-02T15:54:40.584Z,3.10
2023-02-02T15:57:33.443Z,3.42
2023-02-02T16:00:21.270Z,2.90
2023-02-02T16:02:52.378Z,2.95
2023-02-02T16:05:31.376Z,4.40
2023-02-02T16:08:07.800Z,3.83
2023-02-02T16:10:36.091Z,3.63
2023-02-02T16:13:03.484Z,3.88
2023-02-02T16:15:34.066Z,3.90
2023-02-02T16:18:08.019Z,4.38
2023-02-02T16:20:37.525Z,4.20
2023-02-02T16:23:11.430Z,4.88
2023-02-02T16:25:47.243Z,5.72
2023-02-02T16:28:17.142Z,8.50
2023-02-02T16:30:45.406Z,6.32
2023-02-02T16:33:38.812Z,6.80
2023-02-02T16:36:29.684Z,3.85
2023-02-02T16:38:58.623Z,3.85
2023-02-02T16:41:27.447Z,4.30
2023-02-02T16:43:54.572Z,3.55
2023-02-02T16:46:44.153Z,4.50
2023-02-02T16:49:24.420Z,3.58
2023-02-02T16:52:16.187Z,4.65
2023-02-02T16:54:54.316Z,4.70
2023-02-02T16:57:25.884Z,3.85
2023-02-02T16:59:56.385Z,4.38
2023-02-02T17:02:30.648Z,4.30
2023-02-02T17:05:06.543Z,4.72
2023-02-02T17:07:35.634Z,4.90
2023-02-02T17:10:16.441Z,4.72
2023-02-02T17:12:45.761Z,4.90
2023-02-02T17:15:18.438Z,5.32
2023-02-02T17:17:49.440Z,5.00
2023-02-02T17:20:18.007Z,4.55
2023-02-02T17:22:50.918Z,4.55
2023-02-02T17:25:23.591Z,3.78
2023-02-02T17:27:50.601Z,4.60
2023-02-02T17:30:18.792Z,4.13
2023-02-02T17:32:45.678Z,5.15
2023-02-02T17:35:19.218Z,5.32
2023-02-02T17:37:45.903Z,4.97
2023-02-02T17:40:14.731Z,4.82
2023-02-02T17:42:47.242Z,5.05
2023-02-02T17:45:34.179Z,5.50
2023-02-02T17:48:01.443Z,5.22
2023-02-02T17:50:29.605Z,5.40
2023-02-02T17:52:56.787Z,4.47
2023-02-02T17:55:25.728Z,4.65
2023-02-02T17:57:53.860Z,4.65
2023-02-02T18:00:23.232Z,6.30
2023-02-02T18:02:52.449Z,4.55
2023-02-02T18:05:19.764Z,4.90
2023-02-02T18:07:46.712Z,4.30
2023-02-02T18:10:15.067Z,4.10
2023-02-02T18:12:42.553Z,3.65
2023-02-02T18:15:12.189Z,4.00
2023-02-02T18:17:38.928Z,4.35
2023-02-02T18:20:06.097Z,4.32
2023-02-02T18:22:33.265Z,3.70
2023-02-02T18:25:00.044Z,3.35
2023-02-02T18:27:29.747Z,3.67
2023-02-02T18:29:56.682Z,3.53
2023-02-02T18:32:23.453Z,2.88
2023-02-02T18:34:55.052Z,3.15
2023-02-02T18:37:22.915Z,3.33
2023-02-02T18:39:49.608Z,2.70
2023-02-02T18:42:16.330Z,3.38
2023-02-02T18:44:43.172Z,2.60
2023-02-02T18:47:09.829Z,2.92
2023-02-02T18:49:36.523Z,3.05
2023-02-02T18:52:03.319Z,2.97
2023-02-02T18:54:30.009Z,3.75
2023-02-02T18:56:56.666Z,3.00
2023-02-02T18:59:23.374Z,3.17
2023-02-02T19:01:50.067Z,3.00
2023-02-02T19:04:16.769Z,3.28
2023-02-02T19:07:01.909Z,6.30
2023-02-02T19:09:29.671Z,3.90
2023-02-02T19:11:56.509Z,3.53
2023-02-02T19:14:30.436Z,3.15
2023-02-02T19:17:16.911Z,3.78
2023-02-02T19:19:43.590Z,3.15
2023-02-02T19:22:22.432Z,3.40
2023-02-02T19:24:50.446Z,3.00
2023-02-02T19:27:22.330Z,3.63
2023-02-02T19:29:51.265Z,4.47
2023-02-02T19:32:21.896Z,3.70
2023-02-02T19:35:01.403Z,3.83
2023-02-02T19:37:30.224Z,4.13
2023-02-02T19:40:15.477Z,4.68
2023-02-02T19:42:48.035Z,6.15
2023-02-02T19:45:27.828Z,6.85
2023-02-02T19:48:00.252Z,5.65
2023-02-02T19:50:32.428Z,4.20
2023-02-02T19:52:59.418Z,3.83
2023-02-02T19:55:29.057Z,3.78
2023-02-02T19:58:01.908Z,3.65
2023-02-02T20:00:31.155Z,3.75
2023-02-02T20:03:05.649Z,3.53
2023-02-02T20:05:39.232Z,3.47
2023-02-02T20:08:30.891Z,3.30
2023-02-02T20:11:15.695Z,3.30
2023-02-02T20:16:19.717Z,2.97
2023-02-02T20:18:53.821Z,2.80
2023-02-02T20:21:32.316Z,3.47
2023-02-02T20:23:59.276Z,3.97
2023-02-02T20:26:45.176Z,3.30
2023-02-02T20:29:19.550Z,3.42
2023-02-02T20:31:47.453Z,3.25
2023-02-02T20:34:32.961Z,2.80
2023-02-02T20:37:02.968Z,3.88
2023-02-02T20:39:29.696Z,3.65
2023-02-02T20:41:57.339Z,4.65
2023-02-02T20:44:25.619Z,4.50
2023-02-02T20:46:52.771Z,3.28
2023-02-02T20:49:25.349Z,6.00
2023-02-02T20:51:56.867Z,3.95
2023-02-02T20:54:24.700Z,3.88
2023-02-02T20:56:52.177Z,4.25
2023-02-02T20:59:22.107Z,5.95
2023-02-02T21:01:53.047Z,4.00
2023-02-02T21:04:21.828Z,4.20
2023-02-02T21:06:49.255Z,5.70
2023-02-02T21:09:17.403Z,3.75
2023-02-02T21:11:44.682Z,3.28
2023-02-02T21:14:11.492Z,2.67
2023-02-02T21:16:38.247Z,3.00
2023-02-02T21:19:04.989Z,3.10
2023-02-02T21:21:31.690Z,3.70
2023-02-02T21:23:58.595Z,2.92
2023-02-02T21:26:30.547Z,3.58
2023-02-02T21:28:58.467Z,2.90
2023-02-02T21:31:25.726Z,2.90
2023-02-02T21:33:53.160Z,3.20
2023-02-02T21:36:31.405Z,2.83
2023-02-02T21:39:03.840Z,2.55
2023-02-02T21:41:33.129Z,3.10
2023-02-02T21:43:59.934Z,3.22
2023-02-02T21:46:33.427Z,2.10
2023-02-02T21:49:00.842Z,2.60
2023-02-02T21:51:34.859Z,2.58
2023-02-02T21:54:26.070Z,2.45
2023-02-02T21:56:53.745Z,2.88
2023-02-02T21:59:23.045Z,2.90
2023-02-02T22:01:51.672Z,2.42
2023-02-02T22:04:28.498Z,2.50
2023-02-02T22:07:11.826Z,2.58
2023-02-02T22:09:45.797Z,2.75
2023-02-02T22:12:20.855Z,2.97
2023-02-02T22:14:49.568Z,3.17
2023-02-02T22:17:23.448Z,2.50
2023-02-02T22:19:52.660Z,2.50
2023-02-02T22:22:26.277Z,2.70
2023-02-02T22:25:00.276Z,2.20
2023-02-02T22:27:41.465Z,2.00
2023-02-02T22:30:29.810Z,2.33
2023-02-02T22:32:56.734Z,1.92
2023-02-02T22:35:23.523Z,2.30
2023-02-02T22:37:51.470Z,2.67
2023-02-02T22:40:22.381Z,2.35
2023-02-02T22:42:53.652Z,2.88
2023-02-02T22:45:20.805Z,2.85
2023-02-02T22:47:47.891Z,2.40
2023-02-02T22:50:15.993Z,2.65
2023-02-02T22:52:43.550Z,2.40
2023-02-02T22:55:11.434Z,2.00
2023-02-02T22:57:38.424Z,2.58
2023-02-02T23:00:12.713Z,3.35
2023-02-02T23:02:40.315Z,3.08
2023-02-02T23:05:08.864Z,3.72
2023-02-02T23:07:35.544Z,3.45
2023-02-02T23:10:02.379Z,2.15
2023-02-02T23:12:29.223Z,2.90
2023-02-02T23:14:56.011Z,2.92
2023-02-02T23:17:22.688Z,2.97
2023-02-02T23:19:49.349Z,2.47
2023-02-02T23:22:16.442Z,2.65
2023-02-02T23:24:44.504Z,2.97
2023-02-02T23:27:12.994Z,2.33
2023-02-02T23:29:39.974Z,2.40
2023-02-02T23:32:07.108Z,2.28
2023-02-02T23:34:33.867Z,2.42
2023-02-02T23:37:00.575Z,2.50
2023-02-02T23:39:27.241Z,2.30
2023-02-02T23:41:53.897Z,2.65
2023-02-02T23:44:20.567Z,2.33
2023-02-02T23:46:47.504Z,2.40
2023-02-02T23:49:14.251Z,2.42
2023-02-02T23:51:41.156Z,2.72
2023-02-02T23:54:10.992Z,2.70
2023-02-02T23:56:37.724Z,2.63
2023-02-02T23:59:04.441Z,2.40
